^^

..:: Storico WU ::..




Lo storico viene creato da WUnderground con i dati che la stazione Meteomincio invia al loro server. L' aggiornamento viene fatto ogni 5 minuti circa, tuttavia possono esserci intervalli pi¨ ampi a causa di errori, interruzioni di servizio o problemi nell' invio tramite FTP.


Storico stazione MeteoMincio
Giorno Sommario per Luglio 10, 2022 Unità:  Inglese    Metrico   Entrambi
Giorno Settimana Mese Anno
  Max: Min: Media:
Temperatura: 89.6 °F 65.7 °F 78.3 °F
Dew Point: 64.6 °F 55.6 °F 59.5 °F
Umidità: 76.9% 32.8% 55%
Velocità vento: 7.9mph 0mph 2.9mph
Raffica: 14mph - -
Direzione- - SE
Pressione: 30.1 in 29.9 in -
Precipitazioni: 0 in    
 
 
Tabulato Dati per Luglio 10, 2022
Ora Temperatura Dew Point Pressione Direzione Velocità vento Raffica Umidità Intensità pioggia (oraria) Info solare Situazione
00:04 72.5 °F 55.9 °F 30.1 in SE 2.5 mph 4 mph 56.2% 0 in 0 W/m2
00:09 72.5 °F 55.9 °F 30.1 in SE 1.8 mph 4 mph 56% 0 in 0 W/m2
00:14 72.3 °F 55.6 °F 30.1 in SE 1.6 mph 3.5 mph 55.6% 0 in 0 W/m2
00:19 72.3 °F 55.6 °F 30.1 in ESE 1.6 mph 4 mph 55.9% 0 in 0 W/m2
00:24 72 °F 55.6 °F 30.1 in SE 1.2 mph 4 mph 56.2% 0 in 0 W/m2
00:29 71.8 °F 55.6 °F 30.1 in ESE 1.6 mph 4 mph 56.8% 0 in 0 W/m2
00:34 71.6 °F 55.6 °F 30.1 in East 1.4 mph 3 mph 57.1% 0 in 0 W/m2
00:39 71.4 °F 55.9 °F 30.1 in East 1.2 mph 2.3 mph 58% 0 in 0 W/m2
00:44 71.4 °F 55.8 °F 30.1 in East 1.4 mph 3 mph 58% 0 in 0 W/m2
00:49 71.1 °F 55.9 °F 30.1 in ENE 1.7 mph 3.5 mph 58.9% 0 in 0 W/m2
00:54 70.7 °F 56.1 °F 30.1 in ENE 1.8 mph 3.5 mph 60% 0 in 0 W/m2
00:59 70.5 °F 56.5 °F 30.1 in ENE 1.8 mph 3.5 mph 61.2% 0 in 0 W/m2
01:04 70.2 °F 56.8 °F 30.1 in ENE 0.8 mph 3 mph 62.8% 0 in 0 W/m2
01:09 69.6 °F 56.7 °F 30.1 in ENE 1.2 mph 2.3 mph 63.4% 0 in 0 W/m2
01:14 69.4 °F 56.8 °F 30.1 in ENE 1.4 mph 3 mph 64.3% 0 in 0 W/m2
01:19 69.3 °F 56.8 °F 30.1 in NE 2.3 mph 3.5 mph 65% 0 in 0 W/m2
01:24 69.3 °F 56.8 °F 30.1 in NE 1.9 mph 3.5 mph 65% 0 in 0 W/m2
01:29 69.3 °F 56.8 °F 30.1 in NE 1 mph 3 mph 65% 0 in 0 W/m2
01:34 69.1 °F 56.7 °F 30.1 in NE 0.6 mph 2.3 mph 65% 0 in 0 W/m2
01:39 69.1 °F 56.8 °F 30.1 in NE 0.6 mph 2.3 mph 65.2% 0 in 0 W/m2
01:44 68.9 °F 57 °F 30.1 in ENE 2.2 mph 4 mph 65.8% 0 in 0 W/m2
01:49 69.1 °F 57.2 °F 30.1 in ENE 1.9 mph 4 mph 66% 0 in 0 W/m2
01:54 69.1 °F 57.2 °F 30.1 in ENE 1.7 mph 3.5 mph 66% 0 in 0 W/m2
01:59 68.9 °F 57.2 °F 30.1 in NE 1.4 mph 3.5 mph 66.1% 0 in 0 W/m2
02:04 69.1 °F 57.4 °F 30.1 in NE 1.1 mph 3.5 mph 66.2% 0 in 0 W/m2
02:09 68.7 °F 57.4 °F 30.1 in NE 2.1 mph 3.5 mph 67.4% 0 in 0 W/m2
02:14 68.4 °F 57.9 °F 30.1 in NE 1.5 mph 3.5 mph 69.3% 0 in 0 W/m2
02:19 68.5 °F 58.5 °F 30.1 in NE 1.6 mph 3.5 mph 70.5% 0 in 0 W/m2
02:24 68.4 °F 58.6 °F 30.1 in NE 1.7 mph 3.5 mph 71.3% 0 in 0 W/m2
02:29 68.4 °F 59 °F 30.1 in NE 1.9 mph 3.5 mph 72% 0 in 0 W/m2
02:34 68.4 °F 59 °F 30.1 in NE 1.6 mph 3.5 mph 72% 0 in 0 W/m2
02:39 68.7 °F 59 °F 30.1 in NE 1.4 mph 3.5 mph 71.4% 0 in 0 W/m2
02:44 68.4 °F 59 °F 30.1 in NE 2.1 mph 3.5 mph 72% 0 in 0 W/m2
02:49 68.2 °F 58.8 °F 30.1 in NE 1.9 mph 3.5 mph 72% 0 in 0 W/m2
02:54 68.2 °F 58.8 °F 30.1 in NE 2.1 mph 4 mph 72.3% 0 in 0 W/m2
02:59 68 °F 59 °F 30.1 in NE 2.3 mph 4 mph 73% 0 in 0 W/m2
03:04 68 °F 59 °F 30.1 in NE 2.4 mph 4 mph 73.2% 0 in 0 W/m2
03:09 68 °F 59 °F 30.1 in NE 2.1 mph 4 mph 73% 0 in 0 W/m2
03:14 68.2 °F 59.2 °F 30.1 in NE 2.5 mph 4 mph 73% 0 in 0 W/m2
03:19 68.2 °F 59 °F 30.1 in NE 2.5 mph 4 mph 72.4% 0 in 0 W/m2
03:24 68.4 °F 59 °F 30.1 in NE 2.7 mph 5 mph 72% 0 in 0 W/m2
03:29 68.5 °F 58.8 °F 30 in NE 3.2 mph 5 mph 71.5% 0 in 0 W/m2
03:34 68.5 °F 58.6 °F 30 in NE 2.8 mph 5 mph 71% 0 in 0 W/m2
03:39 68.4 °F 59 °F 30 in NE 2.4 mph 4 mph 71.8% 0 in 0 W/m2
03:44 68.4 °F 59 °F 30 in NNE 2 mph 4 mph 72% 0 in 0 W/m2
03:49 68.5 °F 58.8 °F 30 in NNE 2.7 mph 4 mph 71.2% 0 in 0 W/m2
03:54 68.7 °F 58.6 °F 30 in NE 2.1 mph 3.5 mph 70.6% 0 in 0 W/m2
03:59 68.5 °F 58.3 °F 30 in NE 2.5 mph 4 mph 70% 0 in 0 W/m2
04:04 68.4 °F 58.1 °F 30 in NE 3 mph 5 mph 69.8% 0 in 0 W/m2
04:09 68.2 °F 58.1 °F 30 in NE 2.9 mph 5 mph 70% 0 in 0 W/m2
04:14 68 °F 58.1 °F 30 in ENE 2.3 mph 4 mph 70.6% 0 in 0 W/m2
04:19 67.5 °F 58.1 °F 30 in ENE 2.4 mph 4 mph 72.2% 0 in 0 W/m2
04:24 67.1 °F 58.3 °F 30 in ENE 2.2 mph 4 mph 73.2% 0 in 0 W/m2
04:29 66.6 °F 58.3 °F 30 in ENE 2.3 mph 4 mph 74.5% 0 in 0 W/m2
04:34 66.2 °F 58.1 °F 30 in ENE 3 mph 4 mph 75.2% 0 in 0 W/m2
04:39 66.2 °F 57.9 °F 30 in ENE 2.4 mph 4 mph 75% 0 in 0 W/m2
04:44 66 °F 58.1 °F 30 in ENE 2.2 mph 3.5 mph 75.6% 0 in 0 W/m2
04:49 65.8 °F 58.3 °F 30 in ENE 2.2 mph 3.5 mph 76.4% 0 in 0 W/m2
04:54 65.7 °F 58.3 °F 30 in ENE 1.9 mph 3.5 mph 76.9% 0 in 0 W/m2
04:59 65.7 °F 58.1 °F 30 in ENE 1.4 mph 3 mph 76.3% 0 in 0 W/m2
05:04 65.7 °F 57.9 °F 30 in ENE 0.7 mph 2.3 mph 76.3% 0 in 0 W/m2
05:09 65.8 °F 57.9 °F 30 in ENE 0.2 mph 2 mph 75.8% 0 in 0 W/m2
05:14 66 °F 57.7 °F 30 in ENE 0.7 mph 2.3 mph 75% 0 in 0 W/m2
05:19 66 °F 57.9 °F 30 in ENE 1 mph 2.3 mph 75.2% 0 in 0 W/m2
05:24 66.2 °F 58.1 °F 30 in ENE 0.4 mph 2.3 mph 75% 0 in 0 W/m2
05:29 66.4 °F 58.1 °F 30 in NE 1.2 mph 3.5 mph 74.5% 0 in 0 W/m2
05:34 66.4 °F 58.1 °F 30 in NE 1.5 mph 3.5 mph 74.6% 0 in 0 W/m2
05:39 66.4 °F 58.1 °F 30 in NE 0.9 mph 3 mph 74.4% 0 in 0 W/m2
05:44 66.6 °F 58.1 °F 30 in NE 0.4 mph 2.3 mph 74.3% 0 in 0 W/m2
05:49 66.4 °F 58.1 °F 30 in NE 0.7 mph 2.3 mph 75% 0 in 5 W/m2
05:54 66.2 °F 58.1 °F 30 in NE 1.4 mph 3.5 mph 75.6% 0 in 11 W/m2
05:59 66.2 °F 58.1 °F 30 in NNE 1.6 mph 3.5 mph 75.2% 0 in 14 W/m2
06:04 66.2 °F 58.1 °F 30 in NNE 2.1 mph 3.5 mph 75% 0 in 18 W/m2
06:09 66.4 °F 57.9 °F 30 in NNE 2.1 mph 3.5 mph 74.5% 0 in 21 W/m2
06:14 66.4 °F 57.9 °F 30 in NNE 2.2 mph 3.5 mph 73.9% 0 in 26 W/m2
06:19 66.6 °F 57.9 °F 30 in NNE 1.6 mph 3.5 mph 73.8% 0 in 30 W/m2
06:24 66.7 °F 58.1 °F 30 in NE 1.6 mph 3.5 mph 73.8% 0 in 32 W/m2
06:29 66.9 °F 58.3 °F 30 in NNE 1.6 mph 3.5 mph 73.8% 0 in 33 W/m2
06:34 66.9 °F 58.3 °F 30 in NE 1.2 mph 3.5 mph 74% 0 in 35 W/m2
06:39 66.7 °F 58.3 °F 30 in NE 1.2 mph 3.5 mph 74.5% 0 in 39 W/m2
06:44 66.7 °F 58.5 °F 30 in NNE 1.5 mph 3.5 mph 74.5% 0 in 51 W/m2
06:49 67.1 °F 58.5 °F 30 in NE 1.5 mph 3.5 mph 74% 0 in 54 W/m2
06:54 67.5 °F 58.8 °F 30 in NE 1.4 mph 3 mph 74% 0 in 62 W/m2
06:59 67.8 °F 59 °F 30 in NE 1.4 mph 2.3 mph 73.7% 0 in 70 W/m2
07:04 68 °F 59.4 °F 30 in NE 1.2 mph 3 mph 73.8% 0 in 84 W/m2
07:09 68 °F 59.5 °F 30 in NNE 0.7 mph 3 mph 74.1% 0 in 97 W/m2
07:14 68.2 °F 59.5 °F 30 in North 1.1 mph 2.3 mph 73.7% 0 in 97 W/m2
07:19 68.5 °F 59.9 °F 30 in NE 1.5 mph 3.5 mph 73.7% 0 in 127 W/m2
07:24 69.1 °F 59.4 °F 30 in NE 2 mph 3.5 mph 71.3% 0 in 142 W/m2
07:29 69.8 °F 59.5 °F 30 in NE 2.2 mph 4 mph 70% 0 in 155 W/m2
07:34 70.2 °F 60.1 °F 30 in NE 2.7 mph 4 mph 70.1% 0 in 176 W/m2
07:39 70.3 °F 61 °F 30 in NNE 2.5 mph 4 mph 72.4% 0 in 188 W/m2
07:44 70.5 °F 61.7 °F 30 in NNE 2.5 mph 4 mph 73.6% 0 in 200 W/m2
07:49 71.2 °F 61.7 °F 30 in NE 2 mph 3.5 mph 71.9% 0 in 216 W/m2
07:54 72 °F 62.1 °F 30 in NNE 1.7 mph 3.5 mph 71% 0 in 230 W/m2
07:59 72.5 °F 62.4 °F 30 in NE 2.1 mph 3.5 mph 70.6% 0 in 243 W/m2
08:04 72.9 °F 62.8 °F 30 in ENE 2.4 mph 4 mph 70.8% 0 in 257 W/m2
08:09 73.2 °F 63.1 °F 30 in NE 2.4 mph 4 mph 70.6% 0 in 272 W/m2
08:14 73.4 °F 63.7 °F 30 in ENE 2.3 mph 4 mph 71.3% 0 in 287 W/m2
08:19 73.6 °F 63.5 °F 30 in ENE 2.5 mph 4 mph 70.6% 0 in 299 W/m2
08:24 73.8 °F 63.5 °F 30 in ENE 2.2 mph 5 mph 70.4% 0 in 315 W/m2
08:29 74.1 °F 63.9 °F 30 in ENE 2.1 mph 5 mph 70% 0 in 327 W/m2
08:34 74.7 °F 64 °F 30 in ENE 1.6 mph 5 mph 69.4% 0 in 343 W/m2
08:39 75.2 °F 64.6 °F 30 in NNE 1.2 mph 3.5 mph 69.7% 0 in 355 W/m2
08:44 75.9 °F 64.2 °F 30 in NNE 0.9 mph 3.5 mph 66.9% 0 in 369 W/m2
08:49 76.5 °F 63.9 °F 30 in NNE 0.9 mph 3 mph 65% 0 in 380 W/m2
08:54 76.5 °F 62.8 °F 30 in NNE 0.6 mph 3.5 mph 62.6% 0 in 394 W/m2
08:59 77 °F 63.3 °F 30 in NNE 1 mph 3.5 mph 62.7% 0 in 410 W/m2
09:04 77.4 °F 63.1 °F 30 in NNW 0.7 mph 3 mph 61.3% 0 in 417 W/m2
09:09 77.5 °F 63.5 °F 30 in West 1.5 mph 5 mph 62.2% 0 in 427 W/m2
09:14 77.7 °F 61.7 °F 30 in WNW 1.9 mph 5 mph 58.1% 0 in 427 W/m2
09:19 77.7 °F 61.9 °F 30 in WSW 1.1 mph 5 mph 58.5% 0 in 452 W/m2
09:24 77.9 °F 62.2 °F 30 in SW 1.2 mph 3.5 mph 58.7% 0 in 464 W/m2
09:29 78.1 °F 62.1 °F 30 in SE 1.6 mph 4 mph 58.1% 0 in 485 W/m2
09:34 78.1 °F 61 °F 30 in SE 1.2 mph 3.5 mph 55.8% 0 in 496 W/m2
09:39 78.6 °F 62.2 °F 30 in WSW 2.1 mph 3.5 mph 57.5% 0 in 519 W/m2
09:44 78.8 °F 62.1 °F 30 in West 1.6 mph 3.5 mph 56.5% 0 in 533 W/m2
09:49 79 °F 60.8 °F 30 in WSW 2 mph 4 mph 54% 0 in 533 W/m2
09:54 79 °F 60.3 °F 30 in WSW 1.8 mph 4 mph 52.6% 0 in 534 W/m2
09:59 79.2 °F 59.7 °F 30 in WSW 2.1 mph 5 mph 51.4% 0 in 554 W/m2
10:04 79.2 °F 59.4 °F 30 in SW 2.5 mph 5 mph 50.7% 0 in 585 W/m2
10:09 79.3 °F 59.4 °F 30 in West 2.7 mph 5 mph 50.3% 0 in 598 W/m2
10:14 79.7 °F 58.6 °F 30 in SW 1.7 mph 3.5 mph 48.8% 0 in 606 W/m2
10:19 80.1 °F 59.4 °F 30 in SW 1.4 mph 3.5 mph 49.4% 0 in 621 W/m2
10:24 80.2 °F 58.6 °F 30 in SSW 1.2 mph 3.5 mph 48% 0 in 629 W/m2
10:29 80.2 °F 58.8 °F 30 in WNW 1.2 mph 3 mph 48.1% 0 in 642 W/m2
10:34 80.8 °F 60.4 °F 30 in ESE 1.8 mph 4 mph 50.1% 0 in 652 W/m2
10:39 80.8 °F 59.5 °F 30 in SSE 1.9 mph 4 mph 48.5% 0 in 661 W/m2
10:44 80.8 °F 58.6 °F 30 in SW 2.8 mph 5 mph 46.9% 0 in 671 W/m2
10:49 80.8 °F 58.1 °F 30 in SW 1.2 mph 6 mph 45.9% 0 in 680 W/m2
10:54 81.5 °F 58.8 °F 30 in SSW 1.6 mph 6 mph 46.3% 0 in 689 W/m2
10:59 81.5 °F 58.5 °F 30 in SSW 1.8 mph 6 mph 45.8% 0 in 696 W/m2
11:04 81.5 °F 60.1 °F 30 in WSW 1 mph 5 mph 48.3% 0 in 708 W/m2
11:09 82.4 °F 60.1 °F 30 in NNW 0.8 mph 2.3 mph 47.1% 0 in 719 W/m2
11:14 82.2 °F 60.3 °F 30 in ESE 1.5 mph 6 mph 47.5% 0 in 728 W/m2
11:19 82.4 °F 60.8 °F 30 in ESE 3.5 mph 8 mph 48.1% 0 in 737 W/m2
11:24 82.6 °F 61.2 °F 30 in ESE 5.6 mph 8.1 mph 48.5% 0 in 747 W/m2
11:29 82.6 °F 61.3 °F 30 in ESE 3.3 mph 8 mph 49% 0 in 754 W/m2
11:34 82.4 °F 59.5 °F 30 in South 2.9 mph 8 mph 46% 0 in 765 W/m2
11:39 82.8 °F 60.1 °F 30 in SSW 4.7 mph 9.2 mph 46.4% 0 in 773 W/m2
11:44 82.9 °F 60.1 °F 30 in WSW 4.7 mph 10.4 mph 45.8% 0 in 780 W/m2
11:49 83.1 °F 60.1 °F 30 in SW 4.5 mph 10 mph 45.7% 0 in 793 W/m2
11:54 83.5 °F 59.9 °F 30 in WSW 3.9 mph 8.1 mph 45% 0 in 795 W/m2
11:59 83.5 °F 59.7 °F 30 in SW 3.5 mph 8 mph 44.8% 0 in 803 W/m2
12:04 84 °F 58.1 °F 30 in SW 4.5 mph 7 mph 41.5% 0 in 814 W/m2
12:09 83.8 °F 57.4 °F 30 in SW 3.5 mph 7 mph 40.4% 0 in 821 W/m2
12:14 83.8 °F 57.4 °F 30 in SSW 2.1 mph 7 mph 40.6% 0 in 823 W/m2
12:19 84 °F 57.9 °F 30 in SW 2.8 mph 8 mph 41.2% 0 in 830 W/m2
12:24 84.2 °F 57.6 °F 30 in SSW 5.8 mph 9.2 mph 40.5% 0 in 833 W/m2
12:29 84 °F 57.4 °F 30 in SSW 3.4 mph 9 mph 40.4% 0 in 837 W/m2
12:34 84.4 °F 59.2 °F 30 in South 2.8 mph 8 mph 42.6% 0 in 842 W/m2
12:39 84.7 °F 59.5 °F 30 in South 2 mph 7 mph 42.7% 0 in 844 W/m2
12:44 84.6 °F 59 °F 30 in SSW 4.1 mph 7 mph 42% 0 in 849 W/m2
12:49 84.9 °F 59 °F 30 in WSW 2.6 mph 7 mph 41.7% 0 in 854 W/m2
12:54 85.1 °F 59 °F 30 in SSW 4 mph 8.1 mph 41.4% 0 in 856 W/m2
12:59 85.3 °F 58.6 °F 30 in SW 4.5 mph 8 mph 40.5% 0 in 860 W/m2
13:04 85.5 °F 58.3 °F 30 in WSW 4.3 mph 8.1 mph 39.7% 0 in 861 W/m2
13:09 85.5 °F 57.6 °F 30 in WSW 3.3 mph 8 mph 39% 0 in 865 W/m2
13:14 85.8 °F 57.9 °F 29.9 in WSW 1.9 mph 7 mph 38.7% 0 in 868 W/m2
13:19 86 °F 58.1 °F 29.9 in South 2.7 mph 6 mph 39% 0 in 868 W/m2
13:24 86 °F 57.6 °F 29.9 in WSW 4.6 mph 9.2 mph 38.2% 0 in 870 W/m2
13:29 86 °F 57.9 °F 29.9 in West 3.9 mph 9 mph 38.5% 0 in 870 W/m2
13:34 86.4 °F 58.3 °F 29.9 in WSW 4.6 mph 8.1 mph 38.7% 0 in 872 W/m2
13:39 86.4 °F 58.1 °F 29.9 in WSW 4.8 mph 8.1 mph 38.6% 0 in 872 W/m2
13:44 86.4 °F 58.5 °F 29.9 in West 5.1 mph 9.2 mph 39% 0 in 872 W/m2
13:49 86 °F 58.6 °F 29.9 in SW 4.8 mph 9 mph 39.8% 0 in 872 W/m2
13:54 86.4 °F 59.5 °F 29.9 in West 3 mph 7 mph 40.4% 0 in 872 W/m2
13:59 87.3 °F 59.5 °F 29.9 in West 4.7 mph 8.1 mph 39.2% 0 in 872 W/m2
14:04 87.3 °F 59 °F 29.9 in SW 5.6 mph 8.1 mph 38.7% 0 in 872 W/m2
14:09 86.7 °F 58.6 °F 29.9 in WSW 4.9 mph 8.1 mph 38.7% 0 in 867 W/m2
14:14 86.9 °F 58.6 °F 29.9 in West 5.1 mph 9.2 mph 38.6% 0 in 863 W/m2
14:19 86.5 °F 58.8 °F 29.9 in WSW 5.8 mph 10.4 mph 39.1% 0 in 863 W/m2
14:24 87.4 °F 59.7 °F 29.9 in West 5.4 mph 11 mph 39.3% 0 in 861 W/m2
14:29 88 °F 59.4 °F 29.9 in WSW 7.8 mph 12 mph 38.4% 0 in 858 W/m2
14:34 87.4 °F 58.6 °F 29.9 in West 4 mph 12 mph 38% 0 in 854 W/m2
14:39 87.6 °F 58.8 °F 29.9 in WSW 4 mph 9.2 mph 37.8% 0 in 853 W/m2
14:44 87.4 °F 58.6 °F 29.9 in West 3.9 mph 10.4 mph 37.9% 0 in 846 W/m2
14:49 87.6 °F 59.4 °F 29.9 in West 5.5 mph 10.4 mph 38.7% 0 in 842 W/m2
14:54 87.8 °F 59.4 °F 29.9 in West 5.2 mph 10 mph 38.5% 0 in 838 W/m2
14:59 87.8 °F 58.8 °F 29.9 in West 3.2 mph 9 mph 37.7% 0 in 835 W/m2
15:04 88.3 °F 60.4 °F 29.9 in WSW 5.8 mph 10.4 mph 39.2% 0 in 830 W/m2
15:09 88.7 °F 59.9 °F 29.9 in WSW 6.5 mph 10.4 mph 38.2% 0 in 823 W/m2
15:14 88.5 °F 60.6 °F 29.9 in West 5.1 mph 10 mph 39.3% 0 in 817 W/m2
15:19 88.3 °F 59.5 °F 29.9 in WNW 3.8 mph 9 mph 38.1% 0 in 810 W/m2
15:24 88.3 °F 59.9 °F 29.9 in WSW 5.2 mph 8.1 mph 38.5% 0 in 807 W/m2
15:29 88.2 °F 58.8 °F 29.9 in WSW 7.3 mph 12 mph 37.3% 0 in 802 W/m2
15:34 88.2 °F 58.8 °F 29.9 in WSW 7.9 mph 12.7 mph 37.3% 0 in 795 W/m2
15:39 88.3 °F 59.4 °F 29.9 in WSW 6.9 mph 13 mph 37.8% 0 in 784 W/m2
15:44 88.2 °F 58.3 °F 29.9 in West 5.6 mph 12 mph 36.6% 0 in 775 W/m2
15:49 88.9 °F 59.5 °F 29.9 in WNW 5.4 mph 11.5 mph 37.4% 0 in 765 W/m2
15:54 88.7 °F 59.5 °F 29.9 in West 6.3 mph 12 mph 37.5% 0 in 756 W/m2
15:59 88.5 °F 59.7 °F 29.9 in West 6 mph 11.5 mph 38% 0 in 751 W/m2
16:04 88.9 °F 59.5 °F 29.9 in West 6.8 mph 12 mph 37.3% 0 in 740 W/m2
16:09 88.7 °F 59.5 °F 29.9 in West 4.9 mph 9.2 mph 37.5% 0 in 729 W/m2
16:14 89.1 °F 59 °F 29.9 in West 5.7 mph 12 mph 36.4% 0 in 721 W/m2
16:19 88.9 °F 58.8 °F 29.9 in West 7.4 mph 12 mph 36.6% 0 in 710 W/m2
16:24 89.2 °F 59.4 °F 29.9 in West 6.1 mph 12 mph 36.9% 0 in 703 W/m2
16:29 89.1 °F 58.8 °F 29.9 in West 6.4 mph 9.2 mph 36.2% 0 in 689 W/m2
16:34 89.2 °F 59 °F 29.9 in WSW 5.5 mph 9.2 mph 36.3% 0 in 679 W/m2
16:39 89.1 °F 58.8 °F 29.9 in WSW 4 mph 9.2 mph 36.2% 0 in 666 W/m2
16:44 89.2 °F 59.5 °F 29.9 in WSW 5.2 mph 11.5 mph 37% 0 in 659 W/m2
16:49 89.4 °F 58.6 °F 29.9 in West 7.5 mph 12 mph 35.6% 0 in 649 W/m2
16:54 89.2 °F 59.5 °F 29.9 in West 5.4 mph 12 mph 36.9% 0 in 640 W/m2
16:59 89.6 °F 58.5 °F 29.9 in WNW 5 mph 10.4 mph 35.1% 0 in 622 W/m2
17:04 89.6 °F 58.8 °F 29.9 in West 4.7 mph 10 mph 35.6% 0 in 610 W/m2
17:09 89.4 °F 57.7 °F 29.9 in West 6.5 mph 11.5 mph 34.4% 0 in 603 W/m2
17:14 89.2 °F 56.5 °F 29.9 in West 6.3 mph 12 mph 33.2% 0 in 591 W/m2
17:19 88.9 °F 55.9 °F 29.9 in West 4.6 mph 10 mph 33% 0 in 578 W/m2
17:24 89.4 °F 56.3 °F 29.9 in WNW 4.3 mph 8 mph 32.8% 0 in 566 W/m2
17:29 89.4 °F 56.7 °F 29.9 in WNW 4.1 mph 7 mph 33.1% 0 in 550 W/m2
17:34 89.6 °F 57.6 °F 29.9 in WNW 2.6 mph 7 mph 34% 0 in 540 W/m2
17:39 89.2 °F 57.4 °F 29.9 in West 4.2 mph 7 mph 34.1% 0 in 517 W/m2
17:44 89.2 °F 57.7 °F 29.9 in WSW 4 mph 7 mph 34.7% 0 in 506 W/m2
17:49 88.9 °F 57.6 °F 29.9 in WSW 3.4 mph 6 mph 35% 0 in 496 W/m2
17:54 88.9 °F 58.5 °F 29.9 in West 2.8 mph 7 mph 36% 0 in 483 W/m2
17:59 89.1 °F 59.7 °F 29.9 in WSW 4 mph 7 mph 37.4% 0 in 466 W/m2
18:04 88.9 °F 58.3 °F 29.9 in West 4.2 mph 7 mph 35.8% 0 in 454 W/m2
18:09 88.3 °F 56.1 °F 29.9 in WSW 2.2 mph 7 mph 33.5% 0 in 443 W/m2
18:14 88.5 °F 56.5 °F 29.9 in NW 1.3 mph 5 mph 33.9% 0 in 424 W/m2
18:19 88.7 °F 57.2 °F 29.9 in West 2.9 mph 5 mph 34.6% 0 in 413 W/m2
18:24 88.7 °F 56.1 °F 29.9 in West 2.5 mph 5 mph 33.3% 0 in 397 W/m2
18:29 88.3 °F 56.1 °F 29.9 in WSW 2.7 mph 5 mph 33.6% 0 in 381 W/m2
18:34 88.3 °F 56.8 °F 29.9 in WSW 3.5 mph 6 mph 34.6% 0 in 366 W/m2
18:39 88.3 °F 57 °F 29.9 in SW 2.7 mph 6 mph 34.8% 0 in 353 W/m2
18:44 88.2 °F 56.7 °F 29.9 in WSW 1.6 mph 6 mph 34.6% 0 in 336 W/m2
18:49 88 °F 57 °F 29.9 in WSW 1.7 mph 3.5 mph 35.2% 0 in 318 W/m2
18:54 88.2 °F 57.2 °F 29.9 in West 0.7 mph 3 mph 35.3% 0 in 308 W/m2
18:59 88.2 °F 57 °F 29.9 in NNE 1.5 mph 3.5 mph 34.9% 0 in 294 W/m2
19:04 87.6 °F 60.3 °F 29.9 in ENE 2.6 mph 4 mph 39.9% 0 in 274 W/m2
19:09 87.3 °F 60.1 °F 29.9 in ENE 1.9 mph 4 mph 40.2% 0 in 262 W/m2
19:14 87.1 °F 61.7 °F 29.9 in East 2.4 mph 5 mph 42.7% 0 in 250 W/m2
19:19 86.9 °F 61.9 °F 29.9 in East 3 mph 5 mph 43.3% 0 in 241 W/m2
19:24 86.7 °F 62.1 °F 29.9 in East 3 mph 6.9 mph 43.6% 0 in 227 W/m2
19:29 86.7 °F 61.7 °F 29.9 in East 3.4 mph 7 mph 43.3% 0 in 211 W/m2
19:34 86.4 °F 62.4 °F 29.9 in East 2.6 mph 6 mph 45% 0 in 200 W/m2
19:39 86.2 °F 61.9 °F 29.9 in ENE 2.4 mph 5 mph 44.4% 0 in 185 W/m2
19:44 86.2 °F 61.2 °F 29.9 in East 2.1 mph 5 mph 43.2% 0 in 172 W/m2
19:49 85.8 °F 62.1 °F 29.9 in East 2.4 mph 5 mph 44.9% 0 in 158 W/m2
19:54 85.5 °F 62.2 °F 29.9 in East 2 mph 5 mph 45.8% 0 in 139 W/m2
19:59 85.3 °F 61 °F 29.9 in ENE 1.7 mph 5 mph 44.2% 0 in 118 W/m2
20:04 85.1 °F 61.5 °F 29.9 in East 1.2 mph 5 mph 45.1% 0 in 98 W/m2
20:09 84.9 °F 61.2 °F 29.9 in ENE 1.5 mph 3.5 mph 44.8% 0 in 91 W/m2
20:14 84.7 °F 61.5 °F 29.9 in ENE 2.1 mph 3.5 mph 45.9% 0 in 39 W/m2
20:19 84.4 °F 61.9 °F 29.9 in ENE 1.4 mph 3.5 mph 47% 0 in 30 W/m2
20:24 84.4 °F 61.5 °F 29.9 in ENE 0.9 mph 3 mph 46.5% 0 in 28 W/m2
20:29 84.4 °F 61.7 °F 29.9 in ENE 0.4 mph 2 mph 46.7% 0 in 23 W/m2
20:34 84 °F 61.7 °F 29.9 in ENE 0.2 mph 1.2 mph 47.2% 0 in 19 W/m2
20:39 83.7 °F 61.9 °F 29.9 in ENE 0.1 mph 1.2 mph 48.2% 0 in 18 W/m2
20:44 83.5 °F 62.1 °F 29.9 in Calm   1 mph 48.8% 0 in 14 W/m2
20:49 82.8 °F 62.8 °F 29.9 in ENE 0.9 mph 2.3 mph 50.9% 0 in 12 W/m2
20:54 81.7 °F 61.3 °F 29.9 in ENE 0.9 mph 2.3 mph 50.4% 0 in 11 W/m2
20:59 81.1 °F 61.5 °F 29.9 in ENE 0.7 mph 2 mph 51.5% 0 in 7 W/m2
21:04 81 °F 62.2 °F 29.9 in ENE 1 mph 2.3 mph 53.1% 0 in 5 W/m2
21:09 80.6 °F 61.7 °F 29.9 in NE 1.6 mph 2.3 mph 52.7% 0 in 0 W/m2
21:14 80.8 °F 61.5 °F 29.9 in NE 0.4 mph 2.3 mph 52.3% 0 in 0 W/m2
21:19 80.6 °F 61.9 °F 29.9 in NE 0.5 mph 2 mph 53.2% 0 in 0 W/m2
21:24 80.1 °F 61.9 °F 29.9 in NE 0.9 mph 2.3 mph 54.1% 0 in 0 W/m2
21:29 79.5 °F 61.5 °F 29.9 in NE 1.3 mph 2.3 mph 54.2% 0 in 0 W/m2
21:34 79.5 °F 61.5 °F 29.9 in NE 2 mph 3.5 mph 54.4% 0 in 0 W/m2
21:39 79.3 °F 61.2 °F 29.9 in NE 2.8 mph 4 mph 54% 0 in 0 W/m2
21:44 79.2 °F 61.3 °F 29.9 in NE 2.8 mph 4 mph 54.4% 0 in 0 W/m2
21:49 78.8 °F 61.3 °F 29.9 in ENE 2.4 mph 5 mph 55.3% 0 in 0 W/m2
21:54 78.6 °F 61.3 °F 29.9 in ENE 3.2 mph 5 mph 55.3% 0 in 0 W/m2
21:59 79 °F 61.2 °F 29.9 in ENE 4.8 mph 9.2 mph 54.5% 0 in 0 W/m2
22:04 79 °F 61.5 °F 29.9 in ENE 5.9 mph 10 mph 55% 0 in 0 W/m2
22:09 78.6 °F 61.7 °F 29.9 in East 4.5 mph 10.4 mph 56.3% 0 in 0 W/m2
22:14 77.9 °F 61.7 °F 29.9 in East 3.4 mph 10 mph 57.5% 0 in 0 W/m2
22:19 77.5 °F 61.9 °F 29.9 in East 3.5 mph 6 mph 58.6% 0 in 0 W/m2
22:24 77.2 °F 62.4 °F 29.9 in East 3.5 mph 8.1 mph 60.2% 0 in 0 W/m2
22:29 77 °F 62.6 °F 29.9 in NE 4.7 mph 8.1 mph 61.2% 0 in 0 W/m2
22:34 76.6 °F 63 °F 29.9 in ENE 6.3 mph 9.2 mph 62.6% 0 in 0 W/m2
22:39 76.1 °F 63.1 °F 29.9 in ENE 6.1 mph 9.2 mph 64.2% 0 in 0 W/m2
22:44 75.6 °F 63.3 °F 29.9 in ENE 7.9 mph 13 mph 65.8% 0 in 0 W/m2
22:49 75.4 °F 63.1 °F 29.9 in ENE 7.8 mph 13 mph 66% 0 in 0 W/m2
22:54 75.4 °F 63.1 °F 30 in ENE 7.8 mph 13.8 mph 66% 0 in 0 W/m2
22:59 75.2 °F 63.1 °F 30 in ENE 7.3 mph 14 mph 66% 0 in 0 W/m2
23:04 75 °F 63 °F 30 in ENE 6.7 mph 13 mph 66% 0 in 0 W/m2
23:09 74.8 °F 62.8 °F 30 in ENE 6.8 mph 12 mph 66% 0 in 0 W/m2
23:14 74.7 °F 62.6 °F 30 in ENE 7.5 mph 12 mph 66% 0 in 0 W/m2
23:19 74.5 °F 62.6 °F 30 in ENE 5.5 mph 12 mph 66.5% 0 in 0 W/m2
23:24 74.1 °F 62.8 °F 30 in ENE 5.5 mph 10.4 mph 67.5% 0 in 0 W/m2
23:29 73.9 °F 62.8 °F 30 in ENE 5.3 mph 10 mph 68% 0 in 0 W/m2
23:34 73.8 °F 62.8 °F 30 in ENE 4.8 mph 10.4 mph 68.6% 0 in 0 W/m2
23:39 73.6 °F 62.8 °F 30 in ENE 6 mph 11 mph 69% 0 in 0 W/m2
23:44 73.8 °F 62.8 °F 30 in ENE 7.6 mph 12 mph 68.5% 0 in 0 W/m2
23:49 73.8 °F 62.6 °F 30 in ENE 5.7 mph 12 mph 68% 0 in 0 W/m2
23:54 73.8 °F 62.6 °F 30 in ENE 5.3 mph 10.4 mph 68% 0 in 0 W/m2
23:59 73.8 °F 62.4 °F 30 in ENE 6.7 mph 11 mph 68% 0 in 0 W/m2
Stazione Meteorologica MeteoMincio Rivalta s/M (MN)
Con i complimenti di Weather Underground - 4 mb


METEO PILLOLE
Il luogo più nebbioso degli USA
Cape Disappointment - Washington
Per 2552 ore (106 giorni) all'anno in media è avvolto da nebbia fitta.

Do NOT follow this link or you will be banned from the site!